Time;durP1;ratioP1;P1;durP2;ratioP2;P2;SDS_P1;SDS_P2;PMS_P1;PMS_P2;Temp;Humidity;BMP_temperature;BMP_pressure;BME280_temperature;BME280_humidity;BME280_pressure;Samples;Min_cycle;Max_cycle;Signal;HPM_P1;HPM_P2
2022/03/12 00:00:36;;;;;;;7.50;5.60;;;4.80;56.60;;;;;;5174781;27;20197;-50
2022/03/12 00:03:05;;;;;;;9.17;5.87;;;4.80;56.50;;;;;;5173730;27;20209;-51
2022/03/12 00:05:35;;;;;;;14.30;6.20;;;4.80;56.50;;;;;;5174294;27;20721;-51
2022/03/12 00:08:05;;;;;;;10.77;5.90;;;4.80;56.80;;;;;;5175590;27;20212;-51
2022/03/12 00:10:33;;;;;;;7.10;5.70;;;4.80;56.40;;;;;;5174537;27;20226;-51
2022/03/12 00:13:02;;;;;;;10.43;5.77;;;4.80;56.60;;;;;;5174348;27;20204;-51
2022/03/12 00:15:31;;;;;;;7.70;5.47;;;4.80;56.60;;;;;;5174874;27;20704;-51
2022/03/12 00:17:59;;;;;;;10.57;6.27;;;4.80;56.20;;;;;;5174123;27;20236;-51
2022/03/12 00:20:28;;;;;;;8.43;6.27;;;4.80;56.30;;;;;;5175084;27;20254;-51
2022/03/12 00:22:57;;;;;;;7.33;5.90;;;4.80;56.50;;;;;;5174184;27;20248;-51
2022/03/12 00:25:26;;;;;;;7.87;5.50;;;4.80;55.90;;;;;;5174735;27;20240;-51
2022/03/12 00:27:55;;;;;;;14.33;6.00;;;4.80;56.30;;;;;;5161168;27;20269;-51
2022/03/12 00:30:25;;;;;;;8.37;5.80;;;4.80;56.50;;;;;;5155974;27;20213;-52
2022/03/12 00:32:54;;;;;;;7.50;5.77;;;4.70;56.40;;;;;;5173941;27;20223;-51
2022/03/12 00:35:22;;;;;;;8.63;5.00;;;4.70;56.70;;;;;;5174366;27;20674;-51
2022/03/12 00:37:50;;;;;;;8.63;5.57;;;4.60;56.50;;;;;;5173599;27;20204;-51
2022/03/12 00:40:21;;;;;;;6.73;5.10;;;4.60;56.70;;;;;;5174322;27;20231;-51
2022/03/12 00:42:51;;;;;;;7.87;5.27;;;4.60;56.90;;;;;;5173485;27;20261;-51
2022/03/12 00:45:19;;;;;;;7.90;5.40;;;4.60;56.90;;;;;;5174394;27;20278;-52
2022/03/12 00:47:49;;;;;;;11.03;5.73;;;4.50;56.50;;;;;;5174163;27;20258;-51
2022/03/12 00:50:19;;;;;;;7.67;5.77;;;4.50;56.40;;;;;;5172343;27;20240;-52
2022/03/12 00:52:47;;;;;;;7.53;5.80;;;4.50;56.30;;;;;;5173610;27;20240;-50
2022/03/12 00:55:15;;;;;;;12.10;6.17;;;4.40;59.30;;;;;;5173951;27;20253;-52
2022/03/12 00:57:43;;;;;;;7.50;5.57;;;4.30;60.00;;;;;;5173898;27;20729;-51
2022/03/12 01:00:17;;;;;;;7.10;5.90;;;4.20;59.50;;;;;;5173304;27;20203;-52
2022/03/12 01:02:46;;;;;;;8.73;6.00;;;4.20;59.60;;;;;;5173066;27;20186;-51
2022/03/12 01:05:15;;;;;;;8.60;5.60;;;4.10;60.70;;;;;;5173756;27;20235;-51
2022/03/12 01:07:44;;;;;;;9.37;6.03;;;4.00;61.30;;;;;;5173900;27;20203;-52
2022/03/12 01:10:12;;;;;;;9.57;5.90;;;4.00;61.20;;;;;;5173835;27;20278;-52
2022/03/12 01:12:43;;;;;;;9.53;6.23;;;3.90;61.00;;;;;;5173356;27;20275;-52
2022/03/12 01:15:12;;;;;;;8.30;5.83;;;3.90;62.00;;;;;;5173825;27;20370;-51
2022/03/12 01:17:41;;;;;;;8.27;5.67;;;3.80;62.00;;;;;;5173330;27;20736;-51
2022/03/12 01:20:10;;;;;;;8.30;5.20;;;3.80;63.00;;;;;;5172135;27;20201;-52
2022/03/12 01:22:38;;;;;;;12.53;5.80;;;3.70;63.40;;;;;;5172783;27;20276;-52
2022/03/12 01:25:08;;;;;;;8.00;5.77;;;3.70;64.20;;;;;;5173358;27;20221;-52
2022/03/12 01:27:36;;;;;;;9.47;5.97;;;3.60;64.30;;;;;;5172453;27;20259;-51
2022/03/12 01:30:08;;;;;;;8.67;5.30;;;3.70;63.40;;;;;;5172903;27;20722;-51
2022/03/12 01:32:36;;;;;;;7.73;5.87;;;3.70;63.70;;;;;;5172332;27;20237;-52
2022/03/12 01:35:07;;;;;;;11.90;5.70;;;3.70;64.30;;;;;;5172522;27;20224;-52
2022/03/12 01:37:36;;;;;;;7.50;5.70;;;3.60;63.90;;;;;;5173809;27;20564;-52
2022/03/12 01:40:06;;;;;;;8.67;6.20;;;3.70;64.90;;;;;;5173564;27;20229;-52
2022/03/12 01:42:34;;;;;;;10.37;5.87;;;3.60;64.40;;;;;;5172306;27;20234;-52
2022/03/12 01:45:03;;;;;;;6.53;5.83;;;3.60;64.00;;;;;;5172949;27;20254;-51
2022/03/12 01:47:31;;;;;;;9.03;5.70;;;3.60;64.40;;;;;;5173303;27;20208;-52
2022/03/12 01:49:59;;;;;;;6.47;5.07;;;3.60;64.30;;;;;;5173121;27;21009;-52
2022/03/12 01:52:29;;;;;;;7.30;5.30;;;3.60;63.60;;;;;;5173059;27;20229;-51
2022/03/12 01:54:57;;;;;;;9.13;5.60;;;3.60;63.00;;;;;;5173266;27;20754;-52
2022/03/12 01:57:26;;;;;;;6.40;5.43;;;3.60;63.30;;;;;;5173397;27;20262;-52
2022/03/12 01:59:54;;;;;;;8.27;5.70;;;3.60;63.90;;;;;;5173118;27;20266;-52
2022/03/12 02:02:23;;;;;;;7.67;5.57;;;3.60;62.80;;;;;;5176474;27;20233;-52
2022/03/12 02:04:52;;;;;;;8.10;5.57;;;3.60;62.90;;;;;;5177269;27;20217;-51
2022/03/12 02:07:22;;;;;;;7.87;5.53;;;3.60;63.20;;;;;;5177452;27;20211;-51
2022/03/12 02:09:51;;;;;;;8.90;5.97;;;3.60;63.20;;;;;;5177601;27;20214;-52
2022/03/12 02:12:20;;;;;;;7.90;5.50;;;3.60;62.50;;;;;;5176677;27;20208;-52
2022/03/12 02:14:48;;;;;;;6.60;5.30;;;3.60;61.90;;;;;;5177341;27;20277;-52
2022/03/12 02:17:16;;;;;;;9.83;6.07;;;3.60;63.00;;;;;;5177302;27;20205;-52
2022/03/12 02:19:44;;;;;;;7.27;5.53;;;3.60;63.00;;;;;;5177012;27;20564;-52
2022/03/12 02:22:15;;;;;;;7.97;5.70;;;3.60;62.90;;;;;;5176851;27;20203;-52
2022/03/12 02:24:45;;;;;;;7.30;5.73;;;3.60;63.20;;;;;;5176822;27;20227;-51
2022/03/12 02:27:13;;;;;;;7.37;5.83;;;3.60;63.10;;;;;;5169677;27;20206;-52
2022/03/12 02:29:43;;;;;;;7.67;5.80;;;3.60;64.20;;;;;;5155982;27;20629;-51
2022/03/12 02:32:13;;;;;;;7.50;5.80;;;3.60;64.50;;;;;;5155646;27;20210;-51
2022/03/12 02:34:44;;;;;;;9.23;5.80;;;3.60;64.20;;;;;;5170815;27;20222;-51
2022/03/12 02:37:28;;;;;;;6.10;5.20;;;3.60;64.50;;;;;;5176629;27;20213;-51
2022/03/12 02:39:58;;;;;;;7.33;5.33;;;3.50;64.50;;;;;;5177190;27;20582;-52
2022/03/12 02:42:28;;;;;;;10.03;6.00;;;3.60;64.40;;;;;;5175832;27;20246;-51
2022/03/12 02:45:00;;;;;;;6.20;5.40;;;3.50;64.40;;;;;;5177047;27;20275;-51
2022/03/12 02:47:31;;;;;;;9.77;6.17;;;3.50;65.00;;;;;;5176424;27;20202;-51
2022/03/12 02:50:03;;;;;;;6.50;5.43;;;3.60;65.10;;;;;;5175682;27;20222;-52
2022/03/12 02:52:33;;;;;;;7.20;5.77;;;3.50;64.80;;;;;;5176386;27;20290;-52
2022/03/12 02:55:02;;;;;;;6.77;5.63;;;3.50;65.60;;;;;;5175861;27;20226;-51
2022/03/12 02:57:30;;;;;;;7.63;5.20;;;3.50;67.20;;;;;;5176197;27;20226;-51
2022/03/12 03:00:03;;;;;;;7.80;5.73;;;3.40;66.90;;;;;;5176357;27;20245;-51
2022/03/12 03:02:38;;;;;;;9.03;6.00;;;3.40;67.60;;;;;;5176104;27;20206;-51
2022/03/12 03:05:13;;;;;;;8.80;6.10;;;3.40;68.10;;;;;;5175981;27;20276;-59
2022/03/12 03:07:42;;;;;;;8.93;6.20;;;3.40;69.00;;;;;;5175416;27;20206;-51
2022/03/12 03:10:11;;;;;;;7.87;5.70;;;3.40;67.80;;;;;;5155823;27;20230;-51
2022/03/12 03:12:39;;;;;;;9.33;5.70;;;3.40;67.00;;;;;;5153658;27;20211;-50
2022/03/12 03:15:08;;;;;;;7.70;5.30;;;3.40;66.80;;;;;;5155206;27;20223;-51
2022/03/12 03:17:37;;;;;;;8.63;6.00;;;3.40;66.80;;;;;;5154874;27;20665;-52
2022/03/12 03:20:07;;;;;;;6.90;5.73;;;3.40;67.40;;;;;;5175117;27;20620;-51
2022/03/12 03:22:35;;;;;;;8.33;5.57;;;3.40;67.00;;;;;;5175636;27;20205;-52
2022/03/12 03:25:03;;;;;;;9.50;5.80;;;3.40;66.90;;;;;;5176197;27;20220;-51
2022/03/12 03:27:32;;;;;;;9.07;6.47;;;3.40;67.00;;;;;;5175541;27;20204;-51
2022/03/12 03:30:00;;;;;;;9.33;5.63;;;3.30;67.40;;;;;;5175942;27;20224;-51
2022/03/12 03:32:28;;;;;;;7.53;5.47;;;3.40;66.70;;;;;;5174692;27;20216;-51
2022/03/12 03:34:56;;;;;;;10.03;6.10;;;3.40;66.80;;;;;;5175227;27;20230;-51
2022/03/12 03:37:24;;;;;;;8.23;5.87;;;3.40;66.80;;;;;;5175692;27;20670;-51
2022/03/12 03:39:53;;;;;;;7.10;6.03;;;3.40;67.30;;;;;;5175745;27;20205;-52
2022/03/12 03:42:22;;;;;;;7.63;5.77;;;3.40;67.60;;;;;;5174803;27;20203;-51
2022/03/12 03:44:57;;;;;;;8.70;5.90;;;3.40;68.10;;;;;;5174859;27;20639;-51
2022/03/12 03:47:25;;;;;;;6.70;5.57;;;3.40;69.40;;;;;;5175289;27;20253;-51
2022/03/12 03:49:53;;;;;;;8.07;6.03;;;3.30;68.50;;;;;;5174453;27;20291;-51
2022/03/12 03:52:21;;;;;;;8.13;6.23;;;3.30;68.80;;;;;;5174726;27;20201;-52
2022/03/12 03:54:49;;;;;;;9.03;6.83;;;3.30;69.70;;;;;;5174980;27;20719;-52
2022/03/12 03:57:19;;;;;;;7.20;5.87;;;3.30;69.20;;;;;;5174789;27;20260;-51
2022/03/12 03:59:47;;;;;;;8.13;6.23;;;3.40;69.90;;;;;;5175168;27;20207;-51
2022/03/12 04:02:16;;;;;;;7.57;6.10;;;3.40;69.70;;;;;;5175037;27;20570;-51
2022/03/12 04:04:48;;;;;;;7.60;6.20;;;3.40;70.60;;;;;;5174837;27;20253;-52
2022/03/12 04:07:16;;;;;;;7.93;6.27;;;3.40;70.50;;;;;;5175050;27;20231;-51
2022/03/12 04:09:44;;;;;;;7.77;6.13;;;3.40;69.80;;;;;;5174981;27;20342;-52
2022/03/12 04:12:12;;;;;;;8.63;6.53;;;3.40;70.00;;;;;;5174299;27;20678;-52
2022/03/12 04:14:40;;;;;;;7.67;6.13;;;3.40;70.00;;;;;;5174894;27;20205;-52
2022/03/12 04:17:12;;;;;;;8.73;6.00;;;3.50;70.80;;;;;;5174753;27;20260;-52
2022/03/12 04:19:41;;;;;;;8.20;6.50;;;3.50;71.20;;;;;;5157949;27;20199;-52
2022/03/12 04:22:18;;;;;;;9.30;6.27;;;3.50;69.90;;;;;;5153301;27;20206;-52
2022/03/12 04:24:46;;;;;;;7.90;6.57;;;3.50;70.50;;;;;;5153491;27;20223;-52
2022/03/12 04:27:14;;;;;;;8.27;6.57;;;3.50;69.70;;;;;;5160972;27;20211;-52
2022/03/12 04:29:42;;;;;;;9.20;6.07;;;3.50;70.70;;;;;;5174685;27;20267;-52
2022/03/12 04:32:11;;;;;;;10.57;6.37;;;3.50;70.50;;;;;;5174150;27;20200;-51
2022/03/12 04:34:41;;;;;;;7.47;5.90;;;3.50;70.10;;;;;;5173682;27;20210;-51
2022/03/12 04:37:09;;;;;;;9.40;6.30;;;3.50;69.90;;;;;;5174790;27;20582;-50
2022/03/12 04:39:37;;;;;;;7.47;5.93;;;3.50;72.20;;;;;;5174856;27;20204;-51
2022/03/12 04:42:07;;;;;;;7.50;6.27;;;3.60;71.50;;;;;;5174132;27;20350;-51
2022/03/12 04:44:35;;;;;;;8.97;6.60;;;3.60;71.60;;;;;;5174360;27;20255;-51
2022/03/12 04:47:03;;;;;;;8.27;6.73;;;3.50;72.20;;;;;;5174254;27;20207;-51
2022/03/12 04:49:32;;;;;;;9.17;6.90;;;3.50;71.60;;;;;;5174243;27;20207;-51
2022/03/12 04:52:01;;;;;;;9.23;6.83;;;3.50;71.60;;;;;;5174185;27;20252;-51
2022/03/12 04:54:32;;;;;;;8.07;6.50;;;3.60;72.40;;;;;;5173764;27;20295;-51
2022/03/12 04:57:00;;;;;;;9.63;6.47;;;3.60;72.50;;;;;;5174321;27;20327;-51
2022/03/12 04:59:28;;;;;;;8.50;6.03;;;3.50;73.00;;;;;;5174025;27;20198;-52
2022/03/12 05:01:57;;;;;;;7.53;6.17;;;3.50;73.10;;;;;;5174147;27;20254;-51
2022/03/12 05:04:25;;;;;;;8.57;5.83;;;3.50;73.60;;;;;;5173852;27;20211;-51
2022/03/12 05:06:54;;;;;;;11.27;6.50;;;3.50;73.50;;;;;;5173947;27;20205;-50
2022/03/12 05:09:23;;;;;;;10.87;6.00;;;3.50;74.50;;;;;;5174109;27;20203;-51
2022/03/12 05:11:51;;;;;;;11.10;5.93;;;3.50;75.10;;;;;;5173290;27;20328;-52
2022/03/12 05:14:20;;;;;;;7.33;5.57;;;3.50;76.00;;;;;;5173697;27;20210;-51
2022/03/12 05:16:48;;;;;;;8.70;6.40;;;3.50;76.20;;;;;;5173636;27;20884;-51
2022/03/12 05:19:17;;;;;;;7.63;6.13;;;3.50;75.80;;;;;;5174014;27;20207;-50
2022/03/12 05:21:46;;;;;;;8.87;6.50;;;3.50;77.10;;;;;;5173476;27;20664;-49
2022/03/12 05:24:14;;;;;;;10.40;6.83;;;3.40;76.90;;;;;;5173518;27;20203;-51
2022/03/12 05:26:44;;;;;;;7.73;6.53;;;3.50;76.80;;;;;;5170480;27;20219;-51
2022/03/12 05:29:12;;;;;;;8.03;6.03;;;3.40;75.30;;;;;;5152537;27;20670;-49
2022/03/12 05:31:41;;;;;;;8.03;6.27;;;3.40;76.10;;;;;;5152910;27;20226;-51
2022/03/12 05:34:09;;;;;;;8.63;6.50;;;3.50;76.60;;;;;;5152718;27;20234;-50
2022/03/12 05:36:37;;;;;;;8.83;7.00;;;3.40;76.50;;;;;;5151963;27;20219;-51
2022/03/12 05:39:05;;;;;;;9.23;7.17;;;3.40;75.80;;;;;;5152660;27;20252;-51
2022/03/12 05:41:36;;;;;;;9.87;6.93;;;3.40;77.30;;;;;;5152478;27;20203;-50
2022/03/12 05:44:06;;;;;;;8.27;6.83;;;3.40;77.50;;;;;;5152261;27;20204;-51
2022/03/12 05:46:34;;;;;;;10.30;6.87;;;3.50;76.40;;;;;;5152289;27;20708;-51
2022/03/12 05:49:03;;;;;;;6.80;6.07;;;3.50;76.80;;;;;;5151111;27;20287;-51
2022/03/12 05:51:31;;;;;;;8.07;6.53;;;3.50;77.30;;;;;;5152351;27;20776;-51
2022/03/12 05:54:00;;;;;;;8.53;7.00;;;3.50;77.90;;;;;;5152031;27;20199;-51
2022/03/12 05:56:28;;;;;;;9.23;6.10;;;3.60;78.90;;;;;;5173286;27;20584;-51
2022/03/12 05:58:56;;;;;;;10.07;6.53;;;3.60;79.00;;;;;;5173143;27;20208;-51
2022/03/12 06:01:26;;;;;;;7.77;6.23;;;3.60;78.50;;;;;;5173203;27;20256;-51
2022/03/12 06:03:55;;;;;;;7.97;6.40;;;3.70;78.90;;;;;;5172648;27;20208;-51
2022/03/12 06:06:27;;;;;;;10.53;5.80;;;3.70;78.30;;;;;;5173094;27;20252;-51
2022/03/12 06:08:56;;;;;;;9.60;6.30;;;3.60;78.00;;;;;;5173270;27;20200;-51
2022/03/12 06:11:25;;;;;;;7.33;5.97;;;3.70;77.50;;;;;;5172977;27;20223;-51
2022/03/12 06:14:00;;;;;;;7.77;6.23;;;3.70;77.50;;;;;;5172567;27;20207;-50
2022/03/12 06:16:31;;;;;;;7.73;5.97;;;3.70;79.40;;;;;;5173411;27;20227;-51
2022/03/12 06:19:00;;;;;;;8.17;6.57;;;3.70;79.20;;;;;;5173101;27;20213;-51
2022/03/12 06:21:28;;;;;;;11.67;6.23;;;3.80;80.40;;;;;;5173510;27;20203;-51
2022/03/12 06:23:58;;;;;;;9.87;6.00;;;3.80;80.40;;;;;;5172580;27;20560;-52
2022/03/12 06:26:27;;;;;;;8.30;6.43;;;3.80;80.00;;;;;;5172812;27;20281;-51
2022/03/12 06:28:55;;;;;;;26.00;14.57;;;3.80;78.30;;;;;;5172444;27;20708;-51
2022/03/12 06:31:23;;;;;;;30.23;18.10;;;3.70;77.40;;;;;;5173158;27;20238;-52
2022/03/12 06:33:54;;;;;;;30.53;18.60;;;3.70;78.20;;;;;;5158685;27;20265;-51
2022/03/12 06:36:22;;;;;;;33.70;16.83;;;3.80;78.00;;;;;;5151105;27;20237;-51
2022/03/12 06:38:50;;;;;;;27.90;16.60;;;3.80;79.60;;;;;;5164351;27;20681;-51
2022/03/12 06:41:20;;;;;;;25.20;16.20;;;3.80;80.10;;;;;;5157874;27;20234;-51
2022/03/12 06:43:48;;;;;;;23.27;15.33;;;3.80;79.20;;;;;;5171471;27;20212;-51
2022/03/12 06:46:17;;;;;;;24.27;16.63;;;3.80;79.60;;;;;;5172149;27;20760;-51
2022/03/12 06:48:45;;;;;;;18.63;13.60;;;3.80;78.20;;;;;;5173291;27;20201;-51
2022/03/12 06:51:16;;;;;;;16.17;12.83;;;3.80;78.60;;;;;;5173479;27;20276;-51
2022/03/12 06:53:44;;;;;;;14.13;10.50;;;3.80;80.90;;;;;;5170403;27;20205;-51
2022/03/12 06:56:12;;;;;;;14.23;9.87;;;3.90;79.90;;;;;;5158081;27;20224;-51
2022/03/12 06:58:41;;;;;;;13.30;8.40;;;3.90;79.90;;;;;;5154833;27;20212;-50
2022/03/12 07:01:09;;;;;;;9.40;7.00;;;4.00;81.10;;;;;;5163497;27;20261;-51
2022/03/12 07:03:37;;;;;;;19.63;11.23;;;4.10;82.20;;;;;;5175794;27;20208;-51
2022/03/12 07:06:07;;;;;;;67.17;29.43;;;4.30;82.40;;;;;;5175994;27;20223;-51
2022/03/12 07:08:36;;;;;;;30.43;15.23;;;4.60;82.80;;;;;;5176043;27;20194;-51
2022/03/12 07:11:05;;;;;;;17.37;9.90;;;4.90;82.20;;;;;;5175654;27;20205;-51
2022/03/12 07:13:34;;;;;;;17.90;10.10;;;5.20;81.70;;;;;;5175169;27;20266;-50
2022/03/12 07:16:03;;;;;;;22.33;13.27;;;5.50;80.80;;;;;;5175913;27;20282;-51
2022/03/12 07:18:31;;;;;;;16.03;9.37;;;5.60;78.80;;;;;;5175924;27;20206;-51
2022/03/12 07:20:59;;;;;;;10.50;7.33;;;5.80;78.50;;;;;;5176613;27;20261;-51
2022/03/12 07:23:28;;;;;;;7.17;6.10;;;5.90;75.70;;;;;;5175309;27;20194;-51
2022/03/12 07:25:57;;;;;;;8.00;6.30;;;6.10;76.10;;;;;;5176018;27;20225;-51
2022/03/12 07:28:27;;;;;;;11.33;6.93;;;6.10;73.60;;;;;;5163569;27;20198;-51
2022/03/12 07:30:56;;;;;;;9.20;7.00;;;6.20;71.50;;;;;;5170018;27;20201;-51
2022/03/12 07:33:24;;;;;;;9.93;6.63;;;6.20;72.10;;;;;;5173259;27;20209;-51
2022/03/12 07:35:53;;;;;;;8.40;6.53;;;6.40;72.60;;;;;;5173906;27;20270;-51
2022/03/12 07:38:21;;;;;;;9.80;6.80;;;6.60;73.20;;;;;;5174064;27;20197;-51
2022/03/12 07:40:49;;;;;;;8.40;6.83;;;6.80;73.40;;;;;;5173518;27;20206;-51
2022/03/12 07:43:20;;;;;;;8.33;6.70;;;6.90;73.00;;;;;;5168069;27;20277;-51
2022/03/12 07:45:48;;;;;;;11.23;6.80;;;7.00;72.00;;;;;;5161795;27;20218;-51
2022/03/12 07:48:16;;;;;;;9.83;6.77;;;7.10;72.30;;;;;;5152995;27;20243;-51
2022/03/12 07:51:06;;;;;;;9.73;6.60;;;7.30;73.00;;;;;;5172775;27;20289;-51
2022/03/12 07:53:34;;;;;;;8.27;6.83;;;7.50;73.70;;;;;;5168558;27;20271;-51
2022/03/12 07:56:02;;;;;;;8.30;6.53;;;7.60;73.00;;;;;;5167888;27;20269;-51
2022/03/12 07:58:32;;;;;;;9.77;6.70;;;7.80;72.10;;;;;;5173639;27;20203;-50
2022/03/12 08:01:00;;;;;;;7.63;6.47;;;7.80;72.50;;;;;;5175107;27;20622;-52
2022/03/12 08:03:29;;;;;;;8.87;7.57;;;7.90;72.50;;;;;;5174349;27;20200;-51
2022/03/12 08:05:57;;;;;;;10.70;7.37;;;7.80;72.90;;;;;;5174783;27;20266;-51
2022/03/12 08:08:26;;;;;;;8.70;6.70;;;7.60;73.50;;;;;;5168532;27;20265;-51
2022/03/12 08:13:44;;;;;;;10.47;6.83;;;7.50;72.00;;;;;;5169887;27;20304;-50
2022/03/12 08:16:15;;;;;;;8.40;6.63;;;7.50;71.80;;;;;;5174111;27;20221;-51
2022/03/12 08:18:44;;;;;;;8.30;7.00;;;7.40;71.50;;;;;;5173914;27;20711;-51
2022/03/12 08:21:13;;;;;;;7.40;6.30;;;7.50;71.50;;;;;;5174591;27;20205;-51
2022/03/12 08:23:41;;;;;;;9.83;6.73;;;7.60;72.50;;;;;;5173699;27;20545;-51
2022/03/12 08:26:10;;;;;;;9.83;6.87;;;7.60;73.10;;;;;;5155975;27;20229;-51
2022/03/12 08:28:38;;;;;;;8.13;6.60;;;7.70;72.50;;;;;;5172747;27;20590;-51
2022/03/12 08:31:07;;;;;;;9.73;6.67;;;7.70;73.00;;;;;;5163179;27;20226;-51
2022/03/12 08:33:37;;;;;;;9.20;7.00;;;7.80;71.40;;;;;;5156537;27;20221;-51
2022/03/12 08:36:06;;;;;;;11.23;7.07;;;7.80;71.00;;;;;;5156172;27;20324;-51
2022/03/12 08:38:35;;;;;;;13.07;7.10;;;7.90;74.20;;;;;;5157762;27;20198;-51
2022/03/12 08:41:05;;;;;;;9.23;7.10;;;8.00;74.70;;;;;;5162367;27;20205;-51
2022/03/12 08:43:33;;;;;;;10.30;6.87;;;8.00;72.50;;;;;;5172826;27;20209;-51
2022/03/12 08:46:03;;;;;;;10.27;7.00;;;7.90;70.00;;;;;;5170804;27;20654;-51
2022/03/12 08:48:34;;;;;;;11.10;7.23;;;7.90;69.60;;;;;;5158314;27;20205;-51
2022/03/12 08:51:03;;;;;;;10.83;7.43;;;7.90;72.20;;;;;;5173962;27;20197;-51
2022/03/12 08:53:32;;;;;;;9.30;7.00;;;7.90;69.80;;;;;;5173214;27;20290;-51
2022/03/12 08:56:01;;;;;;;9.83;7.10;;;7.90;69.90;;;;;;5173226;27;20221;-51
2022/03/12 08:58:30;;;;;;;10.00;6.97;;;7.90;70.90;;;;;;5173178;27;20259;-51
2022/03/12 09:00:58;;;;;;;8.70;7.27;;;8.00;70.70;;;;;;5172432;27;20229;-51
2022/03/12 09:03:27;;;;;;;9.20;7.67;;;8.10;71.50;;;;;;5163655;27;20717;-51
2022/03/12 09:05:57;;;;;;;11.07;8.17;;;8.10;71.90;;;;;;5156001;27;20221;-51
2022/03/12 09:08:26;;;;;;;10.60;8.07;;;8.00;70.70;;;;;;5158319;27;20265;-51
2022/03/12 09:10:55;;;;;;;10.50;8.00;;;8.10;71.10;;;;;;5152499;27;20205;-51
2022/03/12 09:13:24;;;;;;;11.20;7.70;;;8.20;73.00;;;;;;5152005;27;20225;-50
2022/03/12 09:15:52;;;;;;;13.37;7.33;;;8.30;74.30;;;;;;5152449;27;20358;-50
2022/03/12 09:18:21;;;;;;;12.13;7.33;;;8.40;74.30;;;;;;5152502;27;20225;-51
2022/03/12 09:20:50;;;;;;;9.60;7.23;;;8.50;73.40;;;;;;5152444;27;20254;-50
2022/03/12 09:23:21;;;;;;;11.00;6.83;;;8.50;73.30;;;;;;5152006;27;20722;-51
2022/03/12 09:25:51;;;;;;;8.70;7.37;;;8.60;72.50;;;;;;5151794;27;20222;-51
2022/03/12 09:28:20;;;;;;;11.50;7.93;;;8.60;74.00;;;;;;5168909;27;20738;-50
2022/03/12 09:30:51;;;;;;;10.70;7.57;;;8.70;76.00;;;;;;5173659;27;20197;-51
2022/03/12 09:33:22;;;;;;;11.47;8.17;;;8.70;73.60;;;;;;5172544;27;20217;-51
2022/03/12 09:35:51;;;;;;;11.83;8.70;;;8.80;74.60;;;;;;5173731;27;20732;-50
2022/03/12 09:38:20;;;;;;;11.57;8.60;;;8.90;76.20;;;;;;5172884;27;20226;-51
2022/03/12 09:40:49;;;;;;;11.23;8.03;;;8.90;76.70;;;;;;5166161;27;20202;-51
2022/03/12 09:43:17;;;;;;;9.80;7.60;;;8.90;76.10;;;;;;5151677;27;20242;-51
2022/03/12 09:45:46;;;;;;;11.73;8.33;;;8.90;76.30;;;;;;5152267;27;20230;-51
2022/03/12 09:48:19;;;;;;;10.67;7.87;;;9.00;78.10;;;;;;5152197;27;20563;-51
2022/03/12 09:50:47;;;;;;;10.43;8.17;;;9.10;77.50;;;;;;5151341;27;20235;-51
2022/03/12 09:53:15;;;;;;;10.23;8.37;;;9.10;77.60;;;;;;5152040;27;20257;-50
2022/03/12 09:55:45;;;;;;;11.47;8.33;;;9.20;78.00;;;;;;5166764;27;20722;-51
2022/03/12 09:58:13;;;;;;;11.63;8.63;;;9.20;78.40;;;;;;5172781;27;20568;-51
2022/03/12 10:00:42;;;;;;;14.17;9.40;;;9.20;78.90;;;;;;5172974;27;20206;-50
2022/03/12 10:03:10;;;;;;;13.30;8.97;;;9.20;78.50;;;;;;5172492;27;20198;-51
2022/03/12 10:05:39;;;;;;;12.20;9.10;;;9.30;78.30;;;;;;5173432;27;20233;-50
2022/03/12 10:08:07;;;;;;;11.47;8.33;;;9.40;80.50;;;;;;5168497;27;20250;-51
2022/03/12 10:10:35;;;;;;;10.30;8.80;;;9.50;80.70;;;;;;5152352;27;20202;-51
2022/03/12 10:13:05;;;;;;;11.83;8.37;;;9.60;80.90;;;;;;5151476;27;20206;-51
2022/03/12 10:15:33;;;;;;;11.30;8.13;;;9.60;82.10;;;;;;5151829;27;20295;-50
2022/03/12 10:18:01;;;;;;;11.43;8.87;;;9.70;80.90;;;;;;5151885;27;20616;-51
2022/03/12 10:20:30;;;;;;;11.37;8.50;;;9.70;79.40;;;;;;5151870;27;20263;-50
2022/03/12 10:22:58;;;;;;;10.73;8.83;;;9.60;80.10;;;;;;5154948;27;20203;-51
2022/03/12 10:25:26;;;;;;;11.33;9.10;;;9.60;78.70;;;;;;5155913;27;20218;-51
2022/03/12 10:27:54;;;;;;;11.93;9.10;;;9.70;78.80;;;;;;5168487;27;20772;-51
2022/03/12 10:30:24;;;;;;;12.23;8.97;;;9.60;78.60;;;;;;5176924;27;20250;-51
2022/03/12 10:32:53;;;;;;;12.07;8.87;;;9.70;78.60;;;;;;5174262;27;20206;-51
2022/03/12 10:35:23;;;;;;;12.63;8.87;;;9.70;78.70;;;;;;5176824;27;20277;-50
2022/03/12 10:37:54;;;;;;;14.93;9.00;;;9.80;80.40;;;;;;5176216;27;20204;-51
2022/03/12 10:40:25;;;;;;;10.10;8.13;;;9.90;81.30;;;;;;5175885;27;20204;-51
2022/03/12 10:42:55;;;;;;;10.50;8.37;;;10.00;81.20;;;;;;5175890;27;20248;-51
2022/03/12 10:45:32;;;;;;;12.50;8.83;;;10.10;80.30;;;;;;5175990;27;20300;-51
2022/03/12 10:48:04;;;;;;;11.87;9.03;;;10.10;80.40;;;;;;5176102;27;20235;-51
2022/03/12 10:50:35;;;;;;;10.87;8.90;;;10.20;82.20;;;;;;5174352;27;20205;-51
2022/03/12 10:53:05;;;;;;;11.33;8.63;;;10.10;79.40;;;;;;5176118;27;20213;-51
2022/03/12 10:55:37;;;;;;;11.73;9.50;;;10.30;79.60;;;;;;5176054;27;20336;-52
2022/03/12 10:58:07;;;;;;;11.20;9.33;;;10.20;81.40;;;;;;5176406;27;20181;-55
2022/03/12 11:00:39;;;;;;;13.30;9.10;;;10.30;82.20;;;;;;5176269;27;20198;-50
2022/03/12 11:03:10;;;;;;;12.40;9.90;;;10.40;83.20;;;;;;5175414;27;20565;-52
2022/03/12 11:05:43;;;;;;;12.57;9.33;;;10.40;81.40;;;;;;5176374;27;20230;-51
2022/03/12 11:08:16;;;;;;;12.43;9.70;;;10.40;83.40;;;;;;5176413;27;20553;-51
2022/03/12 11:10:50;;;;;;;13.17;9.23;;;10.50;84.70;;;;;;5176173;27;20202;-51
2022/03/12 11:13:26;;;;;;;12.80;9.47;;;10.60;83.80;;;;;;5175734;27;20189;-52
2022/03/12 11:16:24;;;;;;;13.73;9.40;;;10.70;85.60;;;;;;5175853;27;20273;-52
2022/03/12 11:19:01;;;;;;;12.07;9.17;;;10.70;86.10;;;;;;5128160;27;20206;-51
2022/03/12 11:21:33;;;;;;;13.43;9.70;;;10.80;85.10;;;;;;5176013;27;20261;-52
2022/03/12 11:24:03;;;;;;;16.33;9.57;;;10.80;85.50;;;;;;5175211;27;20198;-51
2022/03/12 11:26:32;;;;;;;12.57;9.33;;;10.90;86.70;;;;;;5174070;27;20225;-51
2022/03/12 11:29:00;;;;;;;12.97;10.13;;;10.90;85.20;;;;;;5155293;27;20247;-51
2022/03/12 11:31:46;;;;;;;13.70;10.67;;;11.00;85.30;;;;;;5154543;27;20722;-51
2022/03/12 11:34:23;;;;;;;13.97;10.40;;;10.90;83.80;;;;;;5150073;27;20291;-51
2022/03/12 11:37:13;;;;;;;13.60;10.10;;;10.90;84.20;;;;;;5154248;27;20255;-50
2022/03/12 11:39:43;;;;;;;13.80;10.10;;;10.90;85.60;;;;;;5150700;27;20201;-50
2022/03/12 11:42:14;;;;;;;14.07;10.50;;;10.90;85.70;;;;;;5170964;27;20202;-51
2022/03/12 11:44:46;;;;;;;13.70;10.60;;;11.00;87.80;;;;;;5171968;27;20214;-51
2022/03/12 11:47:17;;;;;;;13.60;10.43;;;11.00;90.10;;;;;;5173604;27;20241;-51
2022/03/12 11:49:46;;;;;;;17.00;10.77;;;11.00;90.20;;;;;;5151378;27;20274;-52
2022/03/12 11:52:15;;;;;;;14.00;10.33;;;11.00;90.70;;;;;;5171818;27;20210;-51
2022/03/12 11:54:45;;;;;;;13.33;10.50;;;11.10;90.40;;;;;;5174072;27;20213;-51
2022/03/12 11:57:20;;;;;;;14.60;10.10;;;11.10;91.30;;;;;;5174745;27;20201;-51
2022/03/12 11:59:48;;;;;;;13.43;10.73;;;11.20;91.80;;;;;;5174082;27;20205;-51
2022/03/12 12:02:30;;;;;;;12.90;9.83;;;11.30;92.10;;;;;;5173763;27;20801;-51
2022/03/12 12:05:02;;;;;;;12.93;10.30;;;11.20;92.60;;;;;;5171706;27;20224;-50
2022/03/12 12:07:36;;;;;;;17.50;11.13;;;11.30;93.10;;;;;;5173179;27;20197;-51
2022/03/12 12:10:07;;;;;;;12.70;10.13;;;11.40;93.30;;;;;;5151675;27;20197;-51
2022/03/12 12:12:43;;;;;;;14.13;10.67;;;11.40;93.20;;;;;;5150529;27;20186;-51
2022/03/12 12:15:15;;;;;;;13.70;10.23;;;11.40;92.50;;;;;;5151851;27;20226;-51
2022/03/12 12:17:45;;;;;;;13.40;10.23;;;11.30;92.60;;;;;;5152687;27;20209;-51
2022/03/12 12:20:15;;;;;;;13.63;10.47;;;11.30;93.00;;;;;;5153095;27;20254;-51
2022/03/12 12:22:43;;;;;;;13.00;10.53;;;11.30;93.50;;;;;;5153628;27;20206;-51
2022/03/12 12:25:12;;;;;;;16.90;10.40;;;11.40;93.60;;;;;;5153430;27;20631;-51
2022/03/12 12:27:43;;;;;;;14.70;10.67;;;11.60;93.30;;;;;;5162774;27;20836;-51
2022/03/12 12:30:16;;;;;;;15.77;10.87;;;11.60;92.70;;;;;;5168612;27;20224;-51
2022/03/12 12:32:50;;;;;;;13.53;10.40;;;11.60;93.40;;;;;;5152866;27;20251;-50
2022/03/12 12:35:19;;;;;;;12.70;10.27;;;11.70;94.10;;;;;;5153770;27;20256;-51
2022/03/12 12:37:51;;;;;;;16.30;11.03;;;11.70;94.00;;;;;;5153013;27;20198;-52
2022/03/12 12:40:26;;;;;;;14.40;10.70;;;11.80;94.40;;;;;;5159166;27;20194;-52
2022/03/12 12:42:57;;;;;;;14.67;10.40;;;11.90;94.40;;;;;;5165310;27;20817;-52
2022/03/12 12:45:28;;;;;;;14.90;11.13;;;11.90;93.80;;;;;;5163420;27;20687;-52
2022/03/12 12:48:14;;;;;;;12.33;10.20;;;11.90;93.70;;;;;;5173824;27;20202;-52
2022/03/12 12:51:03;;;;;;;13.07;10.97;;;11.90;94.70;;;;;;5173995;27;20600;-51
2022/03/12 12:53:38;;;;;;;13.43;11.03;;;12.00;94.70;;;;;;5173356;27;20210;-51
2022/03/12 12:56:27;;;;;;;14.70;11.20;;;11.90;94.40;;;;;;5173331;27;20623;-52
2022/03/12 12:59:13;;;;;;;13.93;10.27;;;11.90;94.10;;;;;;5174049;27;20201;-52
2022/03/12 13:01:52;;;;;;;13.83;10.97;;;11.90;95.20;;;;;;5173706;27;20228;-52
2022/03/12 13:04:47;;;;;;;14.60;10.90;;;12.00;94.50;;;;;;5173583;27;20185;-52